sensor_id;sensor_type;location;lat;lon;timestamp;P1;durP1;ratioP1;P2;durP2;ratioP2
61903;SDS011;47857;52.270;6.804;2023-08-01T00:01:57;5.35;;;3.88;;
61903;SDS011;47857;52.270;6.804;2023-08-01T00:04:23;5.20;;;4.15;;
61903;SDS011;47857;52.270;6.804;2023-08-01T00:06:48;5.13;;;3.70;;
61903;SDS011;47857;52.270;6.804;2023-08-01T00:09:14;6.47;;;3.70;;
61903;SDS011;47857;52.270;6.804;2023-08-01T00:11:39;5.10;;;3.80;;
61903;SDS011;47857;52.270;6.804;2023-08-01T00:14:05;4.22;;;3.30;;
61903;SDS011;47857;52.270;6.804;2023-08-01T00:16:30;4.93;;;3.40;;
61903;SDS011;47857;52.270;6.804;2023-08-01T00:18:57;4.60;;;3.75;;
61903;SDS011;47857;52.270;6.804;2023-08-01T00:21:23;4.63;;;3.60;;
61903;SDS011;47857;52.270;6.804;2023-08-01T00:23:48;6.15;;;3.58;;
61903;SDS011;47857;52.270;6.804;2023-08-01T00:26:14;4.95;;;3.50;;
61903;SDS011;47857;52.270;6.804;2023-08-01T00:28:39;6.57;;;3.75;;
61903;SDS011;47857;52.270;6.804;2023-08-01T00:31:05;6.22;;;4.32;;
61903;SDS011;47857;52.270;6.804;2023-08-01T00:33:33;6.55;;;3.65;;
61903;SDS011;47857;52.270;6.804;2023-08-01T00:35:59;6.15;;;3.72;;
61903;SDS011;47857;52.270;6.804;2023-08-01T00:38:25;5.97;;;4.45;;
61903;SDS011;47857;52.270;6.804;2023-08-01T00:40:51;6.50;;;4.60;;
61903;SDS011;47857;52.270;6.804;2023-08-01T00:43:16;5.85;;;4.57;;
61903;SDS011;47857;52.270;6.804;2023-08-01T00:45:42;8.68;;;4.68;;
61903;SDS011;47857;52.270;6.804;2023-08-01T00:48:08;6.82;;;4.55;;
61903;SDS011;47857;52.270;6.804;2023-08-01T00:50:33;7.28;;;5.00;;
61903;SDS011;47857;52.270;6.804;2023-08-01T00:52:59;7.65;;;5.10;;
61903;SDS011;47857;52.270;6.804;2023-08-01T00:55:25;6.75;;;5.10;;
61903;SDS011;47857;52.270;6.804;2023-08-01T00:57:51;8.70;;;5.57;;
61903;SDS011;47857;52.270;6.804;2023-08-01T01:00:18;7.90;;;5.53;;
61903;SDS011;47857;52.270;6.804;2023-08-01T01:02:43;7.75;;;5.78;;
61903;SDS011;47857;52.270;6.804;2023-08-01T01:05:09;9.77;;;6.53;;
61903;SDS011;47857;52.270;6.804;2023-08-01T01:07:34;9.40;;;6.18;;
61903;SDS011;47857;52.270;6.804;2023-08-01T01:10:00;8.65;;;6.18;;
61903;SDS011;47857;52.270;6.804;2023-08-01T01:12:25;9.00;;;5.88;;
61903;SDS011;47857;52.270;6.804;2023-08-01T01:14:52;9.60;;;5.57;;
61903;SDS011;47857;52.270;6.804;2023-08-01T01:17:18;9.23;;;5.30;;
61903;SDS011;47857;52.270;6.804;2023-08-01T01:19:43;8.13;;;5.72;;
61903;SDS011;47857;52.270;6.804;2023-08-01T01:22:09;8.15;;;5.07;;
61903;SDS011;47857;52.270;6.804;2023-08-01T01:24:35;9.02;;;5.20;;
61903;SDS011;47857;52.270;6.804;2023-08-01T01:27:01;7.05;;;4.82;;
61903;SDS011;47857;52.270;6.804;2023-08-01T01:29:29;7.50;;;4.55;;
61903;SDS011;47857;52.270;6.804;2023-08-01T01:31:55;7.00;;;4.18;;
61903;SDS011;47857;52.270;6.804;2023-08-01T01:34:21;9.05;;;5.38;;
61903;SDS011;47857;52.270;6.804;2023-08-01T01:36:47;6.85;;;5.20;;
61903;SDS011;47857;52.270;6.804;2023-08-01T01:39:12;10.30;;;5.82;;
61903;SDS011;47857;52.270;6.804;2023-08-01T01:41:38;8.82;;;6.20;;
61903;SDS011;47857;52.270;6.804;2023-08-01T01:44:03;9.20;;;6.20;;
61903;SDS011;47857;52.270;6.804;2023-08-01T01:46:29;8.88;;;6.30;;
61903;SDS011;47857;52.270;6.804;2023-08-01T01:48:54;11.68;;;7.25;;
61903;SDS011;47857;52.270;6.804;2023-08-01T01:51:25;11.30;;;7.18;;
61903;SDS011;47857;52.270;6.804;2023-08-01T01:53:51;9.90;;;7.43;;
61903;SDS011;47857;52.270;6.804;2023-08-01T01:56:16;11.52;;;7.35;;
61903;SDS011;47857;52.270;6.804;2023-08-01T01:58:42;9.45;;;7.30;;
61903;SDS011;47857;52.270;6.804;2023-08-01T02:01:08;12.05;;;7.53;;
61903;SDS011;47857;52.270;6.804;2023-08-01T02:03:33;10.98;;;7.20;;
61903;SDS011;47857;52.270;6.804;2023-08-01T02:05:59;11.23;;;7.47;;
61903;SDS011;47857;52.270;6.804;2023-08-01T02:08:24;10.23;;;6.93;;
61903;SDS011;47857;52.270;6.804;2023-08-01T02:10:50;10.77;;;7.28;;
61903;SDS011;47857;52.270;6.804;2023-08-01T02:13:15;11.52;;;7.50;;
61903;SDS011;47857;52.270;6.804;2023-08-01T02:15:41;12.25;;;7.88;;
61903;SDS011;47857;52.270;6.804;2023-08-01T02:18:07;11.65;;;7.30;;
61903;SDS011;47857;52.270;6.804;2023-08-01T02:20:32;10.43;;;6.90;;
61903;SDS011;47857;52.270;6.804;2023-08-01T02:22:58;10.95;;;6.50;;
61903;SDS011;47857;52.270;6.804;2023-08-01T02:25:23;10.63;;;6.60;;
61903;SDS011;47857;52.270;6.804;2023-08-01T02:27:49;10.90;;;6.47;;
61903;SDS011;47857;52.270;6.804;2023-08-01T02:30:14;12.63;;;6.35;;
61903;SDS011;47857;52.270;6.804;2023-08-01T02:32:42;10.93;;;5.72;;
61903;SDS011;47857;52.270;6.804;2023-08-01T02:35:07;11.05;;;6.07;;
61903;SDS011;47857;52.270;6.804;2023-08-01T02:37:33;9.48;;;5.60;;
61903;SDS011;47857;52.270;6.804;2023-08-01T02:39:59;10.07;;;5.78;;
61903;SDS011;47857;52.270;6.804;2023-08-01T02:42:24;11.63;;;5.75;;
61903;SDS011;47857;52.270;6.804;2023-08-01T02:44:50;12.32;;;5.50;;
61903;SDS011;47857;52.270;6.804;2023-08-01T02:47:15;10.10;;;5.25;;
61903;SDS011;47857;52.270;6.804;2023-08-01T02:49:41;11.48;;;5.18;;
61903;SDS011;47857;52.270;6.804;2023-08-01T02:52:07;10.73;;;5.15;;
61903;SDS011;47857;52.270;6.804;2023-08-01T02:54:32;12.13;;;5.30;;
61903;SDS011;47857;52.270;6.804;2023-08-01T02:56:58;10.63;;;4.93;;
61903;SDS011;47857;52.270;6.804;2023-08-01T02:59:23;11.63;;;4.80;;
61903;SDS011;47857;52.270;6.804;2023-08-01T03:01:49;9.38;;;4.95;;
61903;SDS011;47857;52.270;6.804;2023-08-01T03:04:14;10.00;;;4.85;;
61903;SDS011;47857;52.270;6.804;2023-08-01T03:06:40;9.27;;;5.10;;
61903;SDS011;47857;52.270;6.804;2023-08-01T03:09:05;11.48;;;4.65;;
61903;SDS011;47857;52.270;6.804;2023-08-01T03:11:33;10.65;;;4.30;;
61903;SDS011;47857;52.270;6.804;2023-08-01T03:14:00;10.32;;;4.53;;
61903;SDS011;47857;52.270;6.804;2023-08-01T03:16:26;8.68;;;4.43;;
61903;SDS011;47857;52.270;6.804;2023-08-01T03:18:52;13.27;;;4.60;;
61903;SDS011;47857;52.270;6.804;2023-08-01T03:21:17;9.50;;;4.07;;
61903;SDS011;47857;52.270;6.804;2023-08-01T03:23:43;9.93;;;4.07;;
61903;SDS011;47857;52.270;6.804;2023-08-01T03:26:08;10.77;;;4.07;;
61903;SDS011;47857;52.270;6.804;2023-08-01T03:28:34;10.05;;;4.28;;
61903;SDS011;47857;52.270;6.804;2023-08-01T03:30:59;11.80;;;4.28;;
61903;SDS011;47857;52.270;6.804;2023-08-01T03:33:25;11.32;;;4.13;;
61903;SDS011;47857;52.270;6.804;2023-08-01T03:35:51;10.18;;;4.25;;
61903;SDS011;47857;52.270;6.804;2023-08-01T03:38:17;9.85;;;4.38;;
61903;SDS011;47857;52.270;6.804;2023-08-01T03:40:43;10.30;;;4.10;;
61903;SDS011;47857;52.270;6.804;2023-08-01T03:43:08;9.38;;;4.10;;
61903;SDS011;47857;52.270;6.804;2023-08-01T03:45:35;10.45;;;4.28;;
61903;SDS011;47857;52.270;6.804;2023-08-01T03:48:01;16.40;;;4.65;;
61903;SDS011;47857;52.270;6.804;2023-08-01T03:50:26;12.88;;;4.65;;
61903;SDS011;47857;52.270;6.804;2023-08-01T03:52:52;12.98;;;5.00;;
61903;SDS011;47857;52.270;6.804;2023-08-01T03:55:17;8.88;;;4.30;;
61903;SDS011;47857;52.270;6.804;2023-08-01T03:57:43;12.85;;;4.68;;
61903;SDS011;47857;52.270;6.804;2023-08-01T04:00:09;12.18;;;4.88;;
61903;SDS011;47857;52.270;6.804;2023-08-01T04:02:43;15.65;;;5.00;;
61903;SDS011;47857;52.270;6.804;2023-08-01T04:05:10;12.43;;;4.85;;
61903;SDS011;47857;52.270;6.804;2023-08-01T04:07:36;13.10;;;4.65;;
61903;SDS011;47857;52.270;6.804;2023-08-01T04:10:02;12.60;;;5.80;;
61903;SDS011;47857;52.270;6.804;2023-08-01T04:12:29;13.15;;;5.43;;
61903;SDS011;47857;52.270;6.804;2023-08-01T04:14:57;9.50;;;4.97;;
61903;SDS011;47857;52.270;6.804;2023-08-01T04:17:22;12.20;;;5.30;;
61903;SDS011;47857;52.270;6.804;2023-08-01T04:19:48;10.38;;;4.90;;
61903;SDS011;47857;52.270;6.804;2023-08-01T04:22:13;12.23;;;5.53;;
61903;SDS011;47857;52.270;6.804;2023-08-01T04:24:39;12.70;;;5.90;;
61903;SDS011;47857;52.270;6.804;2023-08-01T04:27:04;12.60;;;5.57;;
61903;SDS011;47857;52.270;6.804;2023-08-01T04:29:30;12.23;;;5.53;;
61903;SDS011;47857;52.270;6.804;2023-08-01T04:31:56;14.18;;;5.60;;
61903;SDS011;47857;52.270;6.804;2023-08-01T04:34:21;12.23;;;5.30;;
61903;SDS011;47857;52.270;6.804;2023-08-01T04:36:47;13.48;;;6.15;;
61903;SDS011;47857;52.270;6.804;2023-08-01T04:39:13;13.88;;;5.65;;
61903;SDS011;47857;52.270;6.804;2023-08-01T04:41:38;14.10;;;5.85;;
61903;SDS011;47857;52.270;6.804;2023-08-01T04:44:04;13.70;;;5.95;;
61903;SDS011;47857;52.270;6.804;2023-08-01T04:46:29;12.38;;;6.05;;
61903;SDS011;47857;52.270;6.804;2023-08-01T04:48:55;12.25;;;5.93;;
61903;SDS011;47857;52.270;6.804;2023-08-01T04:51:20;13.10;;;6.40;;
61903;SDS011;47857;52.270;6.804;2023-08-01T04:53:46;12.50;;;5.60;;
61903;SDS011;47857;52.270;6.804;2023-08-01T04:56:11;11.95;;;6.15;;
61903;SDS011;47857;52.270;6.804;2023-08-01T04:58:37;13.73;;;6.00;;
61903;SDS011;47857;52.270;6.804;2023-08-01T05:01:03;16.27;;;6.80;;
61903;SDS011;47857;52.270;6.804;2023-08-01T05:03:28;13.13;;;6.55;;
61903;SDS011;47857;52.270;6.804;2023-08-01T05:05:53;15.07;;;6.80;;
61903;SDS011;47857;52.270;6.804;2023-08-01T05:08:19;14.90;;;6.50;;
61903;SDS011;47857;52.270;6.804;2023-08-01T05:10:44;14.35;;;6.40;;
61903;SDS011;47857;52.270;6.804;2023-08-01T05:13:10;13.20;;;5.70;;
61903;SDS011;47857;52.270;6.804;2023-08-01T05:15:35;17.13;;;6.05;;
61903;SDS011;47857;52.270;6.804;2023-08-01T05:18:01;13.73;;;6.18;;
61903;SDS011;47857;52.270;6.804;2023-08-01T05:20:26;14.30;;;5.93;;
61903;SDS011;47857;52.270;6.804;2023-08-01T05:22:58;12.38;;;6.18;;
61903;SDS011;47857;52.270;6.804;2023-08-01T05:25:24;13.77;;;5.90;;
61903;SDS011;47857;52.270;6.804;2023-08-01T05:27:50;14.60;;;6.20;;
61903;SDS011;47857;52.270;6.804;2023-08-01T05:30:15;13.40;;;5.20;;
61903;SDS011;47857;52.270;6.804;2023-08-01T05:32:41;11.38;;;5.50;;
61903;SDS011;47857;52.270;6.804;2023-08-01T05:35:09;11.85;;;5.28;;
61903;SDS011;47857;52.270;6.804;2023-08-01T05:37:34;11.52;;;5.07;;
61903;SDS011;47857;52.270;6.804;2023-08-01T05:40:01;11.50;;;4.70;;
61903;SDS011;47857;52.270;6.804;2023-08-01T05:42:28;12.60;;;4.85;;
61903;SDS011;47857;52.270;6.804;2023-08-01T05:44:54;12.32;;;4.40;;
61903;SDS011;47857;52.270;6.804;2023-08-01T05:47:19;15.77;;;4.57;;
61903;SDS011;47857;52.270;6.804;2023-08-01T05:49:45;9.80;;;4.00;;
61903;SDS011;47857;52.270;6.804;2023-08-01T05:52:10;8.85;;;4.00;;
61903;SDS011;47857;52.270;6.804;2023-08-01T05:54:36;8.75;;;3.70;;
61903;SDS011;47857;52.270;6.804;2023-08-01T05:57:01;10.82;;;4.40;;
61903;SDS011;47857;52.270;6.804;2023-08-01T05:59:27;10.20;;;3.80;;
61903;SDS011;47857;52.270;6.804;2023-08-01T06:01:52;7.10;;;3.50;;
61903;SDS011;47857;52.270;6.804;2023-08-01T06:04:18;7.93;;;3.75;;
61903;SDS011;47857;52.270;6.804;2023-08-01T06:06:43;9.65;;;3.38;;
61903;SDS011;47857;52.270;6.804;2023-08-01T06:09:09;8.48;;;3.25;;
61903;SDS011;47857;52.270;6.804;2023-08-01T06:11:34;8.60;;;3.63;;
61903;SDS011;47857;52.270;6.804;2023-08-01T06:14:00;8.45;;;3.45;;
61903;SDS011;47857;52.270;6.804;2023-08-01T06:16:25;8.90;;;3.78;;
61903;SDS011;47857;52.270;6.804;2023-08-01T06:18:51;8.55;;;3.30;;
61903;SDS011;47857;52.270;6.804;2023-08-01T06:21:16;9.05;;;3.38;;
61903;SDS011;47857;52.270;6.804;2023-08-01T06:23:42;9.07;;;3.35;;
61903;SDS011;47857;52.270;6.804;2023-08-01T06:26:07;8.13;;;3.33;;
61903;SDS011;47857;52.270;6.804;2023-08-01T06:28:33;9.20;;;4.03;;
61903;SDS011;47857;52.270;6.804;2023-08-01T06:30:58;13.20;;;6.05;;
61903;SDS011;47857;52.270;6.804;2023-08-01T06:33:24;15.50;;;7.60;;
61903;SDS011;47857;52.270;6.804;2023-08-01T06:35:49;14.80;;;5.68;;
61903;SDS011;47857;52.270;6.804;2023-08-01T06:38:15;15.68;;;7.07;;
61903;SDS011;47857;52.270;6.804;2023-08-01T06:40:41;11.35;;;5.10;;
61903;SDS011;47857;52.270;6.804;2023-08-01T06:43:06;9.65;;;4.03;;
61903;SDS011;47857;52.270;6.804;2023-08-01T06:45:31;10.75;;;3.75;;
61903;SDS011;47857;52.270;6.804;2023-08-01T06:47:57;10.57;;;3.80;;
61903;SDS011;47857;52.270;6.804;2023-08-01T06:50:22;9.65;;;4.20;;
61903;SDS011;47857;52.270;6.804;2023-08-01T06:52:48;11.10;;;4.28;;
61903;SDS011;47857;52.270;6.804;2023-08-01T06:55:13;11.18;;;4.38;;
61903;SDS011;47857;52.270;6.804;2023-08-01T06:57:39;11.02;;;4.25;;
61903;SDS011;47857;52.270;6.804;2023-08-01T07:00:05;9.90;;;3.88;;
61903;SDS011;47857;52.270;6.804;2023-08-01T07:02:33;13.57;;;4.10;;
61903;SDS011;47857;52.270;6.804;2023-08-01T07:04:58;11.13;;;3.80;;
61903;SDS011;47857;52.270;6.804;2023-08-01T07:07:24;10.32;;;3.78;;
61903;SDS011;47857;52.270;6.804;2023-08-01T07:09:49;11.93;;;4.00;;
61903;SDS011;47857;52.270;6.804;2023-08-01T07:12:15;10.45;;;3.58;;
61903;SDS011;47857;52.270;6.804;2023-08-01T07:14:41;10.50;;;3.58;;
61903;SDS011;47857;52.270;6.804;2023-08-01T07:17:06;10.55;;;3.58;;
61903;SDS011;47857;52.270;6.804;2023-08-01T07:19:32;9.40;;;3.78;;
61903;SDS011;47857;52.270;6.804;2023-08-01T07:21:57;8.27;;;3.80;;
61903;SDS011;47857;52.270;6.804;2023-08-01T07:24:23;14.23;;;3.85;;
61903;SDS011;47857;52.270;6.804;2023-08-01T07:26:48;14.25;;;4.07;;
61903;SDS011;47857;52.270;6.804;2023-08-01T07:29:13;11.57;;;3.53;;
61903;SDS011;47857;52.270;6.804;2023-08-01T07:31:42;13.43;;;4.32;;
61903;SDS011;47857;52.270;6.804;2023-08-01T07:34:08;10.57;;;4.10;;
61903;SDS011;47857;52.270;6.804;2023-08-01T07:36:33;10.98;;;4.25;;
61903;SDS011;47857;52.270;6.804;2023-08-01T07:38:59;10.30;;;4.38;;
61903;SDS011;47857;52.270;6.804;2023-08-01T07:41:24;12.48;;;4.70;;
61903;SDS011;47857;52.270;6.804;2023-08-01T07:43:50;13.43;;;4.32;;
61903;SDS011;47857;52.270;6.804;2023-08-01T07:46:15;11.05;;;3.63;;
61903;SDS011;47857;52.270;6.804;2023-08-01T07:48:41;8.95;;;3.53;;
61903;SDS011;47857;52.270;6.804;2023-08-01T07:51:07;9.98;;;3.67;;
61903;SDS011;47857;52.270;6.804;2023-08-01T07:53:33;9.68;;;3.10;;
61903;SDS011;47857;52.270;6.804;2023-08-01T07:55:59;10.35;;;3.50;;
61903;SDS011;47857;52.270;6.804;2023-08-01T07:58:27;8.68;;;3.15;;
61903;SDS011;47857;52.270;6.804;2023-08-01T08:00:53;11.73;;;3.45;;
61903;SDS011;47857;52.270;6.804;2023-08-01T08:03:19;7.70;;;2.80;;
61903;SDS011;47857;52.270;6.804;2023-08-01T08:05:47;10.90;;;2.83;;
61903;SDS011;47857;52.270;6.804;2023-08-01T08:08:13;7.55;;;3.45;;
61903;SDS011;47857;52.270;6.804;2023-08-01T08:10:38;8.98;;;3.30;;
61903;SDS011;47857;52.270;6.804;2023-08-01T08:13:04;7.57;;;2.97;;
61903;SDS011;47857;52.270;6.804;2023-08-01T08:15:30;7.93;;;2.88;;
61903;SDS011;47857;52.270;6.804;2023-08-01T08:17:59;7.88;;;2.65;;
61903;SDS011;47857;52.270;6.804;2023-08-01T08:20:26;8.43;;;2.90;;
61903;SDS011;47857;52.270;6.804;2023-08-01T08:22:51;10.07;;;2.72;;
61903;SDS011;47857;52.270;6.804;2023-08-01T08:25:17;9.13;;;3.08;;
61903;SDS011;47857;52.270;6.804;2023-08-01T08:27:42;8.48;;;3.17;;
61903;SDS011;47857;52.270;6.804;2023-08-01T08:30:08;9.13;;;2.97;;
61903;SDS011;47857;52.270;6.804;2023-08-01T08:32:34;6.53;;;2.67;;
61903;SDS011;47857;52.270;6.804;2023-08-01T08:35:00;8.75;;;3.55;;
61903;SDS011;47857;52.270;6.804;2023-08-01T08:37:26;10.63;;;3.60;;
61903;SDS011;47857;52.270;6.804;2023-08-01T08:39:51;7.47;;;3.17;;
61903;SDS011;47857;52.270;6.804;2023-08-01T08:42:20;8.00;;;2.92;;
61903;SDS011;47857;52.270;6.804;2023-08-01T08:44:45;8.93;;;3.05;;
61903;SDS011;47857;52.270;6.804;2023-08-01T08:47:13;8.38;;;3.30;;
61903;SDS011;47857;52.270;6.804;2023-08-01T08:49:43;6.60;;;2.20;;
61903;SDS011;47857;52.270;6.804;2023-08-01T08:52:10;6.68;;;2.25;;
61903;SDS011;47857;52.270;6.804;2023-08-01T08:54:36;8.13;;;2.55;;
61903;SDS011;47857;52.270;6.804;2023-08-01T08:57:02;8.77;;;2.28;;
61903;SDS011;47857;52.270;6.804;2023-08-01T08:59:32;8.32;;;2.35;;
61903;SDS011;47857;52.270;6.804;2023-08-01T09:01:58;7.55;;;2.10;;
61903;SDS011;47857;52.270;6.804;2023-08-01T09:04:26;7.53;;;2.08;;
61903;SDS011;47857;52.270;6.804;2023-08-01T09:06:54;7.43;;;1.95;;
61903;SDS011;47857;52.270;6.804;2023-08-01T09:09:21;8.43;;;2.50;;
61903;SDS011;47857;52.270;6.804;2023-08-01T09:11:51;7.75;;;2.22;;
61903;SDS011;47857;52.270;6.804;2023-08-01T09:14:18;9.32;;;2.42;;
61903;SDS011;47857;52.270;6.804;2023-08-01T09:16:45;9.68;;;2.60;;
61903;SDS011;47857;52.270;6.804;2023-08-01T09:19:16;7.45;;;2.80;;
61903;SDS011;47857;52.270;6.804;2023-08-01T09:21:42;4.60;;;2.17;;
61903;SDS011;47857;52.270;6.804;2023-08-01T09:24:11;5.30;;;2.30;;
61903;SDS011;47857;52.270;6.804;2023-08-01T09:26:40;8.80;;;2.80;;
61903;SDS011;47857;52.270;6.804;2023-08-01T09:29:07;7.95;;;2.50;;
61903;SDS011;47857;52.270;6.804;2023-08-01T09:31:33;9.90;;;3.47;;
61903;SDS011;47857;52.270;6.804;2023-08-01T09:34:01;7.60;;;2.45;;
61903;SDS011;47857;52.270;6.804;2023-08-01T09:36:31;9.15;;;2.80;;
61903;SDS011;47857;52.270;6.804;2023-08-01T09:38:58;5.88;;;2.33;;
61903;SDS011;47857;52.270;6.804;2023-08-01T09:41:24;4.93;;;2.40;;
61903;SDS011;47857;52.270;6.804;2023-08-01T09:43:50;6.70;;;2.55;;
61903;SDS011;47857;52.270;6.804;2023-08-01T09:46:16;7.45;;;2.70;;
61903;SDS011;47857;52.270;6.804;2023-08-01T09:48:41;5.78;;;2.38;;
61903;SDS011;47857;52.270;6.804;2023-08-01T09:51:08;9.77;;;2.63;;
61903;SDS011;47857;52.270;6.804;2023-08-01T09:53:34;5.72;;;2.40;;
61903;SDS011;47857;52.270;6.804;2023-08-01T09:56:19;9.68;;;2.42;;
61903;SDS011;47857;52.270;6.804;2023-08-01T09:58:46;8.98;;;2.35;;
61903;SDS011;47857;52.270;6.804;2023-08-01T10:01:15;6.72;;;2.08;;
61903;SDS011;47857;52.270;6.804;2023-08-01T10:03:46;7.63;;;2.25;;
61903;SDS011;47857;52.270;6.804;2023-08-01T10:06:24;8.27;;;2.35;;
61903;SDS011;47857;52.270;6.804;2023-08-01T10:08:54;6.90;;;2.38;;
61903;SDS011;47857;52.270;6.804;2023-08-01T10:11:20;8.23;;;2.00;;
61903;SDS011;47857;52.270;6.804;2023-08-01T10:13:47;8.15;;;1.85;;
61903;SDS011;47857;52.270;6.804;2023-08-01T10:16:13;5.43;;;2.08;;
61903;SDS011;47857;52.270;6.804;2023-08-01T10:18:40;3.55;;;1.92;;
61903;SDS011;47857;52.270;6.804;2023-08-01T10:21:06;7.38;;;1.67;;
61903;SDS011;47857;52.270;6.804;2023-08-01T10:23:33;5.78;;;2.05;;
61903;SDS011;47857;52.270;6.804;2023-08-01T10:25:59;6.03;;;2.03;;
61903;SDS011;47857;52.270;6.804;2023-08-01T10:28:35;8.73;;;1.85;;
61903;SDS011;47857;52.270;6.804;2023-08-01T10:31:09;6.35;;;2.08;;
61903;SDS011;47857;52.270;6.804;2023-08-01T10:33:39;6.07;;;1.88;;
61903;SDS011;47857;52.270;6.804;2023-08-01T10:36:13;5.88;;;1.85;;
61903;SDS011;47857;52.270;6.804;2023-08-01T10:38:52;5.35;;;1.70;;
61903;SDS011;47857;52.270;6.804;2023-08-01T10:41:25;5.30;;;1.83;;
61903;SDS011;47857;52.270;6.804;2023-08-01T10:43:51;5.15;;;1.42;;
61903;SDS011;47857;52.270;6.804;2023-08-01T10:46:17;5.75;;;1.73;;
61903;SDS011;47857;52.270;6.804;2023-08-01T10:48:51;4.97;;;2.30;;
61903;SDS011;47857;52.270;6.804;2023-08-01T10:51:17;5.93;;;1.90;;
61903;SDS011;47857;52.270;6.804;2023-08-01T10:53:43;2.97;;;1.55;;
61903;SDS011;47857;52.270;6.804;2023-08-01T10:56:15;7.75;;;2.17;;
61903;SDS011;47857;52.270;6.804;2023-08-01T10:58:44;6.13;;;2.15;;
61903;SDS011;47857;52.270;6.804;2023-08-01T11:01:10;7.32;;;2.00;;
61903;SDS011;47857;52.270;6.804;2023-08-01T11:03:36;5.45;;;1.90;;
61903;SDS011;47857;52.270;6.804;2023-08-01T11:06:02;7.95;;;2.20;;
61903;SDS011;47857;52.270;6.804;2023-08-01T11:08:35;6.47;;;1.90;;
61903;SDS011;47857;52.270;6.804;2023-08-01T11:11:05;4.50;;;1.77;;
61903;SDS011;47857;52.270;6.804;2023-08-01T11:13:31;5.18;;;1.83;;
61903;SDS011;47857;52.270;6.804;2023-08-01T11:16:00;7.95;;;2.33;;
61903;SDS011;47857;52.270;6.804;2023-08-01T11:18:30;6.95;;;2.20;;
61903;SDS011;47857;52.270;6.804;2023-08-01T11:20:56;6.57;;;1.80;;
61903;SDS011;47857;52.270;6.804;2023-08-01T11:23:27;6.63;;;1.73;;
61903;SDS011;47857;52.270;6.804;2023-08-01T11:25:53;5.85;;;1.52;;
61903;SDS011;47857;52.270;6.804;2023-08-01T11:28:20;4.28;;;1.30;;
61903;SDS011;47857;52.270;6.804;2023-08-01T11:30:46;5.22;;;1.25;;
61903;SDS011;47857;52.270;6.804;2023-08-01T11:33:19;4.97;;;1.50;;
61903;SDS011;47857;52.270;6.804;2023-08-01T11:35:54;3.90;;;1.30;;
61903;SDS011;47857;52.270;6.804;2023-08-01T11:38:26;4.13;;;1.40;;
61903;SDS011;47857;52.270;6.804;2023-08-01T11:40:54;5.07;;;1.15;;
61903;SDS011;47857;52.270;6.804;2023-08-01T11:43:21;4.00;;;1.40;;
61903;SDS011;47857;52.270;6.804;2023-08-01T11:45:54;4.32;;;1.20;;
61903;SDS011;47857;52.270;6.804;2023-08-01T11:48:21;3.42;;;1.30;;
61903;SDS011;47857;52.270;6.804;2023-08-01T11:50:49;8.88;;;1.60;;
61903;SDS011;47857;52.270;6.804;2023-08-01T11:53:21;6.10;;;2.08;;
61903;SDS011;47857;52.270;6.804;2023-08-01T11:55:47;6.60;;;1.60;;
61903;SDS011;47857;52.270;6.804;2023-08-01T11:58:14;6.18;;;1.70;;
61903;SDS011;47857;52.270;6.804;2023-08-01T12:00:40;3.50;;;1.60;;
61903;SDS011;47857;52.270;6.804;2023-08-01T12:03:07;4.82;;;1.40;;
61903;SDS011;47857;52.270;6.804;2023-08-01T12:05:38;5.40;;;1.70;;
61903;SDS011;47857;52.270;6.804;2023-08-01T12:08:09;4.40;;;1.30;;
61903;SDS011;47857;52.270;6.804;2023-08-01T12:10:38;4.07;;;1.30;;
61903;SDS011;47857;52.270;6.804;2023-08-01T12:13:21;3.20;;;1.15;;
61903;SDS011;47857;52.270;6.804;2023-08-01T12:15:48;4.50;;;1.50;;
61903;SDS011;47857;52.270;6.804;2023-08-01T12:18:21;3.95;;;1.42;;
61903;SDS011;47857;52.270;6.804;2023-08-01T12:20:48;4.03;;;1.60;;
61903;SDS011;47857;52.270;6.804;2023-08-01T12:23:13;5.47;;;1.52;;
61903;SDS011;47857;52.270;6.804;2023-08-01T12:25:39;5.20;;;1.70;;
61903;SDS011;47857;52.270;6.804;2023-08-01T12:28:04;6.00;;;1.83;;
61903;SDS011;47857;52.270;6.804;2023-08-01T12:30:30;4.53;;;1.52;;
61903;SDS011;47857;52.270;6.804;2023-08-01T12:32:55;3.83;;;1.40;;
61903;SDS011;47857;52.270;6.804;2023-08-01T12:35:21;5.05;;;1.70;;
61903;SDS011;47857;52.270;6.804;2023-08-01T12:37:46;5.28;;;1.40;;
61903;SDS011;47857;52.270;6.804;2023-08-01T12:40:12;3.80;;;1.42;;
61903;SDS011;47857;52.270;6.804;2023-08-01T12:42:37;6.03;;;1.55;;
61903;SDS011;47857;52.270;6.804;2023-08-01T12:45:03;3.50;;;1.20;;
61903;SDS011;47857;52.270;6.804;2023-08-01T12:47:29;6.28;;;1.20;;
61903;SDS011;47857;52.270;6.804;2023-08-01T12:49:55;4.22;;;1.23;;
61903;SDS011;47857;52.270;6.804;2023-08-01T12:52:24;3.00;;;1.20;;
61903;SDS011;47857;52.270;6.804;2023-08-01T12:54:50;4.38;;;1.20;;
61903;SDS011;47857;52.270;6.804;2023-08-01T12:57:16;3.85;;;1.27;;
61903;SDS011;47857;52.270;6.804;2023-08-01T12:59:41;7.30;;;1.63;;
61903;SDS011;47857;52.270;6.804;2023-08-01T13:02:07;4.97;;;1.30;;
61903;SDS011;47857;52.270;6.804;2023-08-01T13:04:36;3.60;;;1.30;;
61903;SDS011;47857;52.270;6.804;2023-08-01T13:07:02;7.22;;;1.40;;
61903;SDS011;47857;52.270;6.804;2023-08-01T13:09:27;5.10;;;1.40;;
61903;SDS011;47857;52.270;6.804;2023-08-01T13:11:53;5.82;;;1.42;;
61903;SDS011;47857;52.270;6.804;2023-08-01T13:14:18;5.07;;;1.73;;
61903;SDS011;47857;52.270;6.804;2023-08-01T13:16:44;7.40;;;1.65;;
61903;SDS011;47857;52.270;6.804;2023-08-01T13:19:09;5.38;;;1.30;;
61903;SDS011;47857;52.270;6.804;2023-08-01T13:21:35;4.65;;;1.45;;
61903;SDS011;47857;52.270;6.804;2023-08-01T13:24:01;4.28;;;1.08;;
61903;SDS011;47857;52.270;6.804;2023-08-01T13:26:30;5.60;;;1.38;;
61903;SDS011;47857;52.270;6.804;2023-08-01T13:28:56;3.72;;;1.30;;
61903;SDS011;47857;52.270;6.804;2023-08-01T13:31:25;3.55;;;1.40;;
61903;SDS011;47857;52.270;6.804;2023-08-01T13:33:51;6.78;;;1.50;;
61903;SDS011;47857;52.270;6.804;2023-08-01T13:36:17;6.47;;;1.27;;
61903;SDS011;47857;52.270;6.804;2023-08-01T13:38:43;4.05;;;1.25;;
61903;SDS011;47857;52.270;6.804;2023-08-01T13:41:09;3.38;;;1.25;;
61903;SDS011;47857;52.270;6.804;2023-08-01T13:43:34;5.18;;;1.30;;
61903;SDS011;47857;52.270;6.804;2023-08-01T13:46:00;7.28;;;2.13;;
61903;SDS011;47857;52.270;6.804;2023-08-01T13:48:26;5.07;;;1.30;;
61903;SDS011;47857;52.270;6.804;2023-08-01T13:50:51;4.88;;;1.20;;
61903;SDS011;47857;52.270;6.804;2023-08-01T13:53:17;6.45;;;1.60;;
61903;SDS011;47857;52.270;6.804;2023-08-01T13:55:44;2.83;;;1.27;;
61903;SDS011;47857;52.270;6.804;2023-08-01T13:58:09;5.43;;;1.40;;
61903;SDS011;47857;52.270;6.804;2023-08-01T14:00:35;5.75;;;2.25;;
61903;SDS011;47857;52.270;6.804;2023-08-01T14:03:00;5.97;;;2.17;;
61903;SDS011;47857;52.270;6.804;2023-08-01T14:05:26;5.80;;;1.90;;
61903;SDS011;47857;52.270;6.804;2023-08-01T14:07:52;6.70;;;1.88;;
61903;SDS011;47857;52.270;6.804;2023-08-01T14:10:18;4.90;;;1.42;;
61903;SDS011;47857;52.270;6.804;2023-08-01T14:12:44;3.58;;;1.30;;
61903;SDS011;47857;52.270;6.804;2023-08-01T14:15:10;4.20;;;1.25;;
61903;SDS011;47857;52.270;6.804;2023-08-01T14:17:35;5.40;;;1.60;;
61903;SDS011;47857;52.270;6.804;2023-08-01T14:20:02;5.80;;;1.60;;
61903;SDS011;47857;52.270;6.804;2023-08-01T14:22:29;5.30;;;1.25;;
61903;SDS011;47857;52.270;6.804;2023-08-01T14:24:55;6.30;;;1.83;;
61903;SDS011;47857;52.270;6.804;2023-08-01T14:27:21;5.47;;;1.70;;
61903;SDS011;47857;52.270;6.804;2023-08-01T14:29:47;3.72;;;1.20;;
61903;SDS011;47857;52.270;6.804;2023-08-01T14:32:13;5.03;;;1.50;;
61903;SDS011;47857;52.270;6.804;2023-08-01T14:34:41;6.72;;;1.70;;
61903;SDS011;47857;52.270;6.804;2023-08-01T14:37:06;5.00;;;1.58;;
61903;SDS011;47857;52.270;6.804;2023-08-01T14:39:32;4.65;;;1.50;;